Time;durP1;ratioP1;P1;durP2;ratioP2;P2;SDS_P1;SDS_P2;PMS_P1;PMS_P2;Temp;Humidity;BMP_temperature;BMP_pressure;BME280_temperature;BME280_humidity;BME280_pressure;Samples;Min_cycle;Max_cycle;Signal;HPM_P1;HPM_P2
2022/10/18 00:00:21;;;;;;;;;11.50;11.50;;;;;14.35;60.30;102395.00;146604;610;46013;-77
2022/10/18 00:03:21;;;;;;;;;12.00;11.00;;;;;14.36;61.07;102395.87;146607;600;46010;-76
2022/10/18 00:06:16;;;;;;;;;15.50;12.75;;;;;14.29;61.38;102394.59;146603;582;46016;-77
2022/10/18 00:09:12;;;;;;;;;10.50;10.50;;;;;14.20;60.78;102389.72;146607;639;45580;-75
2022/10/18 00:12:07;;;;;;;;;10.75;8.00;;;;;14.15;61.18;102391.16;146601;621;47014;-77
2022/10/18 00:15:04;;;;;;;;;13.00;12.00;;;;;14.15;60.55;102393.75;146606;570;46013;-77
2022/10/18 00:17:56;;;;;;;;;15.75;11.75;;;;;14.22;60.78;102393.31;146604;575;46012;-79
2022/10/18 00:20:49;;;;;;;;;12.75;11.75;;;;;14.27;60.63;102386.69;146605;593;46010;-77
2022/10/18 00:23:41;;;;;;;;;11.25;11.25;;;;;14.26;61.95;102374.44;146598;573;46914;-77
2022/10/18 00:26:34;;;;;;;;;14.75;12.50;;;;;14.21;61.30;102364.56;146604;565;46020;-79
2022/10/18 00:29:26;;;;;;;;;12.00;11.00;;;;;14.23;61.60;102369.03;146603;614;46017;-78
2022/10/18 00:32:19;;;;;;;;;12.00;11.00;;;;;14.26;61.44;102366.63;146606;622;46021;-78
2022/10/18 00:35:12;;;;;;;;;12.50;12.50;;;;;14.26;61.94;102377.06;146603;597;46016;-74
2022/10/18 00:38:13;;;;;;;;;13.75;13.00;;;;;14.23;61.67;102376.84;146601;613;47012;-74
2022/10/18 00:41:11;;;;;;;;;14.25;14.00;;;;;14.18;61.94;102366.97;146601;585;46012;-73
2022/10/18 00:44:37;;;;;;;;;17.75;14.75;;;;;14.15;61.20;102365.06;146605;600;46020;-76
2022/10/18 00:47:30;;;;;;;;;15.25;12.00;;;;;14.18;62.40;102364.34;146602;665;46012;-78
2022/10/18 00:50:29;;;;;;;;;13.50;12.50;;;;;14.16;62.70;102356.41;146604;586;46020;-75
2022/10/18 00:53:26;;;;;;;;;14.25;12.00;;;;;14.08;62.04;102358.56;146605;634;46013;-74
2022/10/18 00:56:19;;;;;;;;;13.75;13.25;;;;;14.04;63.95;102360.88;146605;565;47010;-74
2022/10/18 00:59:12;;;;;;;;;13.00;13.00;;;;;13.95;63.51;102348.13;146602;619;46016;-74
2022/10/18 01:02:13;;;;;;;;;15.50;12.00;;;;;13.92;63.27;102345.31;146605;607;46010;-73
2022/10/18 01:05:13;;;;;;;;;11.25;11.25;;;;;13.97;63.15;102338.72;146603;617;46014;-74
2022/10/18 01:09:01;;;;;;;;;12.00;12.00;;;;;14.01;63.13;102339.81;146603;611;46011;-73
2022/10/18 01:12:39;;;;;;;;;;;;;;;;;;;;;
2022/10/18 01:15:54;;;;;;;;;14.00;12.75;;;;;13.83;64.47;102326.50;146606;624;46020;-72
2022/10/18 01:19:24;;;;;;;;;13.00;11.00;;;;;13.80;64.09;102328.91;146605;563;46016;-71
2022/10/18 01:22:39;;;;;;;;;13.75;12.50;;;;;13.84;63.45;102328.31;146605;589;46011;-71
2022/10/18 01:26:29;;;;;;;;;13.75;11.25;;;;;11.98;63.07;101984.78;146604;580;46033;-72
2022/10/18 01:30:03;;;;;;;;;12.75;12.50;;;;;13.99;63.30;102331.91;146606;594;46021;-72
2022/10/18 01:33:09;;;;;;;;;15.50;13.75;;;;;14.01;63.60;102318.94;146625;607;45912;-73
2022/10/18 01:36:41;;;;;;;;;15.00;14.75;;;;;11.96;62.44;101953.50;146629;620;45010;-72
2022/10/18 01:39:48;;;;;;;;;13.50;13.50;;;;;14.06;63.40;102325.34;146625;570;46012;-72
2022/10/18 01:42:41;;;;;;;;;11.75;10.50;;;;;14.04;63.68;102333.06;146628;588;45020;-72
2022/10/18 01:45:36;;;;;;;;;14.50;13.75;;;;;14.04;63.98;102337.38;146615;599;46017;-71
2022/10/18 01:48:36;;;;;;;;;12.75;12.25;;;;;14.03;63.77;102319.94;146628;607;45026;-71
2022/10/18 01:51:39;;;;;;;;;11.25;11.25;;;;;14.03;63.88;102328.66;146628;620;45016;-72
2022/10/18 01:54:53;;;;;;;;;13.00;12.00;;;;;12.75;63.33;102086.00;146627;653;45020;-73
2022/10/18 01:58:12;;;;;;;;;14.50;11.75;;;;;13.97;62.54;102324.78;146620;571;46012;-72
2022/10/18 02:01:15;;;;;;;;;12.50;12.00;;;;;13.86;63.46;102311.97;146631;643;45010;-71
2022/10/18 02:04:45;;;;;;;;;14.00;13.25;;;;;13.82;63.56;102315.16;146626;563;45012;-71
2022/10/18 02:08:23;;;;;;;;;13.00;12.50;;;;;13.70;65.38;102311.78;146629;585;45025;-71
2022/10/18 02:11:20;;;;;;;;;15.25;15.00;;;;;13.51;65.57;102311.41;146623;590;45012;-76
2022/10/18 02:14:20;;;;;;;;;13.75;12.50;;;;;13.46;65.43;102311.13;146626;590;45029;-77
2022/10/18 02:17:30;;;;;;;;;12.75;11.75;;;;;13.49;66.12;102313.00;146626;610;46012;-75
2022/10/18 02:20:36;;;;;;;;;17.75;15.75;;;;;13.48;64.54;102306.00;146621;612;46914;-77
2022/10/18 02:23:33;;;;;;;;;17.50;14.75;;;;;13.44;65.61;102315.31;146628;610;45035;-73
2022/10/18 02:26:37;;;;;;;;;18.00;13.50;;;;;13.38;65.30;102308.00;146625;565;45020;-74
2022/10/18 02:29:33;;;;;;;;;14.25;13.50;;;;;13.43;66.28;102315.22;146619;571;45915;-73
2022/10/18 02:33:11;;;;;;;;;13.00;13.00;;;;;11.31;66.06;101947.38;146612;694;46020;-70
2022/10/18 02:36:20;;;;;;;;;19.25;15.25;;;;;13.28;66.58;102313.44;146610;601;46914;-71
2022/10/18 02:39:23;;;;;;;;;13.75;13.75;;;;;13.22;67.55;102306.88;146612;583;46010;-75
2022/10/18 02:42:19;;;;;;;;;15.75;15.50;;;;;13.15;67.19;102316.00;146611;604;46012;-76
2022/10/18 02:45:15;;;;;;;;;14.75;14.50;;;;;13.13;67.03;102315.00;146609;607;46012;-72
2022/10/18 02:48:14;;;;;;;;;14.00;13.00;;;;;13.18;66.28;102318.81;146611;592;46016;-74
2022/10/18 02:51:26;;;;;;;;;;;;;;;;;;;;;
2022/10/18 02:54:32;;;;;;;;;19.00;18.00;;;;;13.30;66.71;102327.47;146609;566;46016;-73
2022/10/18 02:57:27;;;;;;;;;15.75;15.25;;;;;13.24;66.60;102320.88;146611;571;46032;-76
2022/10/18 03:00:26;;;;;;;;;13.50;11.50;;;;;13.22;66.41;102313.00;146604;578;47016;-79
2022/10/18 03:03:24;;;;;;;;;19.50;17.00;;;;;13.28;66.57;102326.44;146613;569;46020;-78
2022/10/18 03:06:17;;;;;;;;;18.25;18.00;;;;;13.33;67.61;102335.50;146607;589;46017;-75
2022/10/18 03:09:14;;;;;;;;;21.25;17.00;;;;;13.31;66.29;102331.87;146611;627;46020;-76
2022/10/18 03:12:09;;;;;;;;;17.50;17.25;;;;;13.35;66.59;102325.16;146610;606;46016;-75
2022/10/18 03:15:06;;;;;;;;;16.75;16.00;;;;;13.44;66.68;102330.97;146611;717;45914;-76
2022/10/18 03:18:01;;;;;;;;;16.25;16.25;;;;;13.54;66.71;102338.56;146608;592;46016;-76
2022/10/18 03:21:02;;;;;;;;;21.25;20.75;;;;;13.60;65.85;102340.66;146614;620;46020;-75
2022/10/18 03:23:57;;;;;;;;;18.00;16.25;;;;;13.60;65.78;102336.34;146611;593;46016;-75
2022/10/18 03:27:04;;;;;;;;;15.75;15.75;;;;;11.57;64.70;101962.13;146614;570;46012;-77
2022/10/18 03:29:57;;;;;;;;;17.75;16.00;;;;;13.57;65.63;102309.19;146610;589;46012;-77
2022/10/18 03:32:56;;;;;;;;;23.75;22.75;;;;;13.57;65.53;102324.84;146604;565;47012;-76
2022/10/18 03:35:51;;;;;;;;;13.50;12.50;;;;;13.56;65.34;102313.50;146603;596;46012;-75
2022/10/18 03:38:51;;;;;;;;;16.25;14.50;;;;;13.56;65.77;102326.53;146608;636;46020;-76
2022/10/18 03:41:56;;;;;;;;;18.75;15.75;;;;;11.50;64.01;101991.09;146605;575;46013;-74
2022/10/18 03:44:50;;;;;;;;;20.00;18.75;;;;;13.40;65.45;102327.25;146602;570;46020;-76
2022/10/18 03:47:52;;;;;;;;;23.25;21.00;;;;;13.33;66.08;102342.37;146606;564;45913;-75
2022/10/18 03:50:47;;;;;;;;;17.25;17.25;;;;;13.20;65.43;102334.53;146606;597;46021;-76
2022/10/18 03:53:39;;;;;;;;;18.25;18.25;;;;;13.15;66.10;102322.09;146602;587;46914;-75
2022/10/18 03:56:43;;;;;;;;;19.00;16.25;;;;;13.11;66.13;102322.69;146606;634;46010;-75
2022/10/18 03:59:35;;;;;;;;;17.25;17.00;;;;;13.03;66.74;102341.22;146604;583;47014;-77
2022/10/18 04:02:34;;;;;;;;;15.00;15.00;;;;;12.94;66.03;102326.78;146603;598;46020;-71
2022/10/18 04:05:30;;;;;;;;;19.25;18.50;;;;;12.87;67.07;102323.69;146602;580;46915;-73
2022/10/18 04:08:32;;;;;;;;;21.25;20.00;;;;;12.74;67.66;102302.78;146606;586;46020;-71
2022/10/18 04:11:31;;;;;;;;;21.25;18.75;;;;;12.74;67.56;102303.72;146604;601;46016;-70
2022/10/18 04:14:33;;;;;;;;;19.00;18.50;;;;;12.67;67.14;102297.19;146606;626;46020;-71
2022/10/18 04:17:30;;;;;;;;;20.25;18.00;;;;;12.69;67.70;102305.09;146603;603;46016;-73
2022/10/18 04:20:24;;;;;;;;;20.00;18.50;;;;;12.66;67.56;102290.19;146607;661;46010;-77
2022/10/18 04:23:28;;;;;;;;;25.00;22.25;;;;;12.70;66.77;102286.06;146599;565;46029;-78
2022/10/18 04:26:22;;;;;;;;;25.50;22.00;;;;;12.69;67.43;102276.47;146604;623;46010;-75
2022/10/18 04:29:30;;;;;;;;;26.00;24.00;;;;;10.81;67.56;101965.53;146603;627;46016;-74
2022/10/18 04:32:30;;;;;;;;;23.00;20.00;;;;;12.63;67.43;102300.38;146627;585;45029;-79
2022/10/18 04:35:35;;;;;;;;;24.00;22.00;;;;;12.64;69.28;102299.56;146625;631;46012;-79
2022/10/18 04:38:30;;;;;;;;;19.25;16.50;;;;;12.76;68.56;102307.31;146626;595;45020;-77
2022/10/18 04:41:23;;;;;;;;;21.50;20.25;;;;;12.88;68.38;102296.84;146622;613;45017;-76
2022/10/18 04:44:16;;;;;;;;;24.50;20.50;;;;;13.06;68.33;102302.38;146625;648;45020;-74
2022/10/18 04:47:18;;;;;;;;;20.50;20.00;;;;;13.18;68.16;102303.19;146627;573;45016;-75
2022/10/18 04:50:23;;;;;;;;;22.50;20.75;;;;;13.32;67.68;102291.97;146626;570;45020;-72
2022/10/18 04:53:15;;;;;;;;;22.00;22.00;;;;;13.47;66.56;102299.88;146625;564;45931;-71
2022/10/18 04:56:12;;;;;;;;;22.75;22.00;;;;;13.57;67.19;102302.28;146625;615;45021;-76
2022/10/18 04:59:21;;;;;;;;;24.00;18.50;;;;;13.69;66.96;102298.66;146626;606;46012;-76
2022/10/18 05:02:23;;;;;;;;;20.50;19.75;;;;;13.80;66.98;102300.22;146628;577;45023;-76
2022/10/18 05:05:19;;;;;;;;;21.00;17.50;;;;;13.91;66.42;102304.41;146625;589;45016;-76
2022/10/18 05:08:28;;;;;;;;;24.75;23.00;;;;;14.00;66.44;102310.22;146624;565;45020;-70
2022/10/18 05:11:27;;;;;;;;;24.25;22.75;;;;;14.09;66.37;102310.78;146625;660;46013;-70
2022/10/18 05:14:25;;;;;;;;;20.25;20.25;;;;;14.19;65.80;102314.87;146628;646;45029;-70
2022/10/18 05:17:24;;;;;;;;;20.25;20.00;;;;;14.59;67.28;102327.78;146628;590;46012;-70
2022/10/18 05:20:28;;;;;;;;;21.75;19.00;;;;;15.46;65.95;102324.16;146628;622;45010;-69
2022/10/18 05:23:45;;;;;;;;;20.00;19.00;;;;;16.60;62.47;102319.09;146627;600;45012;-70
2022/10/18 05:26:40;;;;;;;;;18.50;18.50;;;;;17.75;60.51;102313.44;146626;617;46010;-72
2022/10/18 05:29:37;;;;;;;;;22.00;19.50;;;;;18.75;57.11;102310.12;146624;569;45016;-72
2022/10/18 05:32:32;;;;;;;;;15.00;15.00;;;;;19.67;54.79;102322.75;146609;579;46011;-73
2022/10/18 05:35:33;;;;;;;;;15.50;14.50;;;;;20.52;53.19;102329.47;146604;581;46914;-73
2022/10/18 05:38:33;;;;;;;;;20.75;18.00;;;;;21.26;50.58;102321.47;146604;627;46010;-72
2022/10/18 05:41:28;;;;;;;;;17.25;15.75;;;;;21.70;49.78;102333.47;146601;602;46020;-72
2022/10/18 05:44:39;;;;;;;;;13.50;13.25;;;;;22.11;47.75;102342.63;146604;620;46010;-73
2022/10/18 05:47:43;;;;;;;;;14.50;13.00;;;;;21.91;46.81;102336.78;146602;594;46014;-73
2022/10/18 05:50:40;;;;;;;;;18.75;17.75;;;;;21.62;48.63;102340.25;146604;636;46020;-73
2022/10/18 05:53:40;;;;;;;;;25.75;22.75;;;;;21.51;48.88;102331.09;146599;602;48913;-72
2022/10/18 05:56:33;;;;;;;;;28.75;24.00;;;;;21.29;48.77;102340.03;146604;564;46021;-73
2022/10/18 05:59:31;;;;;;;;;27.00;24.50;;;;;21.05;49.58;102345.37;146602;595;46014;-71
2022/10/18 06:02:26;;;;;;;;;28.25;24.50;;;;;20.89;48.71;102342.22;146602;596;46013;-71
2022/10/18 06:05:42;;;;;;;;;23.00;21.75;;;;;20.64;50.23;102345.72;146598;595;47913;-71
2022/10/18 06:08:34;;;;;;;;;23.75;21.00;;;;;20.46;49.84;102335.37;146607;565;46010;-71
2022/10/18 06:11:33;;;;;;;;;19.50;18.75;;;;;20.18;50.84;102335.22;146603;579;46914;-72
2022/10/18 06:14:32;;;;;;;;;21.25;21.25;;;;;19.96;50.97;102338.75;146604;569;46020;-72
2022/10/18 06:17:33;;;;;;;;;21.25;21.25;;;;;19.72;51.52;102336.06;146601;605;46016;-72
2022/10/18 06:20:33;;;;;;;;;23.00;21.25;;;;;19.49;52.36;102329.84;146606;627;46010;-74
2022/10/18 06:23:29;;;;;;;;;20.50;19.75;;;;;19.32;52.47;102329.19;146606;583;46012;-72
2022/10/18 06:26:25;;;;;;;;;22.75;22.25;;;;;19.12;52.66;102320.47;146603;769;46021;-72
2022/10/18 06:29:19;;;;;;;;;24.50;22.00;;;;;19.00;52.96;102314.69;146601;666;46021;-70
2022/10/18 06:32:26;;;;;;;;;21.25;20.00;;;;;19.01;53.33;102325.28;146628;583;45021;-70
2022/10/18 06:35:21;;;;;;;;;21.75;20.50;;;;;19.03;53.64;102322.69;146628;606;46012;-72
2022/10/18 06:38:23;;;;;;;;;18.50;16.00;;;;;19.01;53.31;102322.66;146627;612;45010;-71
2022/10/18 06:41:30;;;;;;;;;24.50;22.00;;;;;19.02;53.74;102321.81;146626;586;45916;-70
2022/10/18 06:44:26;;;;;;;;;21.00;17.50;;;;;19.10;53.11;102324.78;146625;588;46010;-70
2022/10/18 06:47:24;;;;;;;;;20.00;17.00;;;;;19.09;53.35;102323.84;146624;578;45916;-70
2022/10/18 06:50:21;;;;;;;;;20.00;19.00;;;;;19.08;53.66;102329.06;146626;582;45020;-68
2022/10/18 06:53:21;;;;;;;;;17.75;16.75;;;;;19.04;53.91;102328.03;146628;595;44019;-69
2022/10/18 06:56:29;;;;;;;;;27.50;23.75;;;;;19.05;53.88;102315.78;146628;611;45020;-70
2022/10/18 06:59:24;;;;;;;;;24.00;23.25;;;;;19.02;53.81;102319.19;146624;604;46916;-71
2022/10/18 07:02:22;;;;;;;;;17.75;17.75;;;;;18.88;53.98;102323.88;146631;627;45010;-70
2022/10/18 07:05:21;;;;;;;;;22.50;19.75;;;;;18.90;55.12;102327.44;146623;599;46014;-73
2022/10/18 07:08:17;;;;;;;;;20.50;20.00;;;;;19.08;55.04;102329.94;146627;580;45020;-73
2022/10/18 07:11:29;;;;;;;;;21.00;20.00;;;;;19.32;54.32;102321.31;146624;573;45915;-70
2022/10/18 07:14:27;;;;;;;;;20.00;18.00;;;;;19.58;53.40;102332.88;146622;605;45028;-72
2022/10/18 07:17:29;;;;;;;;;22.00;22.00;;;;;19.78;53.47;102331.03;146624;593;47012;-71
2022/10/18 07:20:27;;;;;;;;;23.00;19.75;;;;;19.90;52.68;102328.00;146627;599;45020;-75
2022/10/18 07:23:22;;;;;;;;;21.50;21.50;;;;;19.97;52.38;102328.31;146621;594;47012;-71
2022/10/18 07:26:23;;;;;;;;;21.00;19.50;;;;;20.06;52.80;102318.13;146626;678;45020;-70
2022/10/18 07:29:17;;;;;;;;;21.75;20.00;;;;;20.15;53.18;102319.28;146628;613;45012;-70
2022/10/18 07:32:09;;;;;;;;;18.75;17.25;;;;;20.22;52.71;102324.87;146625;589;45021;-70
2022/10/18 07:35:02;;;;;;;;;20.75;19.50;;;;;20.17;52.27;102331.69;146625;604;45014;-70
2022/10/18 07:37:54;;;;;;;;;20.25;20.00;;;;;19.93;52.80;102333.38;146627;655;45020;-70
2022/10/18 07:40:46;;;;;;;;;17.75;15.00;;;;;19.70;53.63;102332.50;146623;648;46914;-78
2022/10/18 07:43:59;;;;;;;;;20.00;18.00;;;;;17.79;54.58;102026.81;146623;597;46010;-75
2022/10/18 07:46:53;;;;;;;;;24.00;21.00;;;;;19.51;54.69;102330.84;146625;652;45014;-75
2022/10/18 07:49:48;;;;;;;;;20.00;19.00;;;;;19.49;54.29;102328.13;146626;666;45913;-74
2022/10/18 07:52:43;;;;;;;;;17.25;16.25;;;;;19.44;54.95;102332.31;146628;696;45015;-75
2022/10/18 07:55:40;;;;;;;;;20.25;19.00;;;;;19.38;54.22;102332.06;146629;570;45010;-75
2022/10/18 07:58:44;;;;;;;;;23.00;21.50;;;;;19.25;55.06;102327.12;146626;588;45034;-76
2022/10/18 08:01:38;;;;;;;;;23.25;19.00;;;;;19.17;55.70;102323.28;146625;565;45011;-75
2022/10/18 08:04:39;;;;;;;;;23.00;21.50;;;;;19.08;56.12;102322.06;146623;646;45016;-74
2022/10/18 08:07:32;;;;;;;;;19.50;18.00;;;;;19.07;56.47;102320.28;146628;569;45914;-76
2022/10/18 08:10:30;;;;;;;;;19.25;17.00;;;;;19.20;56.13;102319.06;146624;585;46012;-74
2022/10/18 08:13:31;;;;;;;;;19.25;17.50;;;;;19.36;55.73;102303.06;146626;569;45020;-75
2022/10/18 08:16:31;;;;;;;;;17.25;17.25;;;;;19.57;55.98;102299.50;146624;609;45916;-75
2022/10/18 08:19:23;;;;;;;;;23.75;21.50;;;;;19.80;55.15;102303.94;146626;617;46010;-78
2022/10/18 08:22:28;;;;;;;;;;;;;;;;;;;;;
2022/10/18 08:25:26;;;;;;;;;24.50;20.50;;;;;20.38;54.17;102285.91;146629;680;45010;-75
2022/10/18 08:28:32;;;;;;;;;20.00;18.25;;;;;20.73;53.40;102292.44;146625;565;45032;-76
2022/10/18 08:31:29;;;;;;;;;20.50;18.50;;;;;21.03;51.76;102278.50;146619;583;46020;-73
2022/10/18 08:34:29;;;;;;;;;14.50;14.50;;;;;21.25;50.31;102280.13;146623;563;45028;-73
2022/10/18 08:37:30;;;;;;;;;16.00;14.00;;;;;21.50;50.60;102276.53;146625;682;46010;-72
2022/10/18 08:40:38;;;;;;;;;13.75;12.75;;;;;21.75;49.76;102267.63;146621;563;45916;-72
2022/10/18 08:44:18;;;;;;;;;14.50;14.00;;;;;20.29;50.72;101978.28;146622;589;46012;-73
2022/10/18 08:47:29;;;;;;;;;16.50;16.00;;;;;22.27;49.22;102263.84;146626;565;45914;-73
2022/10/18 08:50:39;;;;;;;;;13.75;10.75;;;;;22.46;46.36;102254.66;146626;573;45027;-72
2022/10/18 08:54:00;;;;;;;;;11.00;11.00;;;;;20.99;46.01;101968.97;146622;572;45016;-73
2022/10/18 08:57:03;;;;;;;;;16.75;13.25;;;;;22.73;46.64;102249.22;146625;600;46010;-72
2022/10/18 09:00:11;;;;;;;;;12.75;12.75;;;;;22.76;43.87;102231.69;146624;610;46015;-72
2022/10/18 09:03:49;;;;;;;;;;;;;;;;;;;;;
2022/10/18 09:07:12;;;;;;;;;11.75;11.75;;;;;22.93;47.08;102252.34;146625;643;46012;-71
2022/10/18 09:10:32;;;;;;;;;11.75;11.75;;;;;23.29;45.46;102252.38;146629;564;46010;-72
2022/10/18 09:14:01;;;;;;;;;12.50;11.50;;;;;23.62;45.37;102246.06;146624;577;46012;-73
2022/10/18 09:17:22;;;;;;;;;12.50;11.00;;;;;23.74;41.41;102247.25;146623;574;46010;-73
2022/10/18 09:21:21;;;;;;;;;14.50;11.50;;;;;22.03;44.83;101936.53;146626;634;45012;-72
2022/10/18 09:24:31;;;;;;;;;10.75;8.75;;;;;23.60;41.01;102235.44;146627;695;45032;-73
2022/10/18 09:27:41;;;;;;;;;9.75;9.75;;;;;23.57;42.35;102230.06;146625;626;46914;-74
2022/10/18 09:31:19;;;;;;;;;11.25;11.00;;;;;21.75;46.40;101958.72;146620;564;46010;-73
2022/10/18 09:34:49;;;;;;;;;8.75;8.75;;;;;21.71;43.37;101957.72;146605;575;46012;-74
2022/10/18 09:38:11;;;;;;;;;12.25;11.25;;;;;23.42;42.49;102224.44;146607;714;46010;-73
2022/10/18 09:41:18;;;;;;;;;9.00;9.00;;;;;23.67;40.78;102210.84;146605;721;46016;-73
2022/10/18 09:44:43;;;;;;;;;13.00;12.00;;;;;23.75;40.37;102211.06;146606;584;46021;-73
2022/10/18 09:48:22;;;;;;;;;13.50;11.50;;;;;22.38;42.92;101953.22;146601;668;48012;-73
2022/10/18 09:51:47;;;;;;;;;15.50;13.00;;;;;23.68;42.23;102149.13;146604;595;46013;-74
2022/10/18 09:55:10;;;;;;;;;11.00;10.00;;;;;24.21;41.10;102196.09;146602;608;46016;-71
2022/10/18 09:58:09;;;;;;;;;9.25;9.25;;;;;24.32;40.79;102199.78;146606;680;46010;-71
2022/10/18 10:01:16;;;;;;;;;10.75;10.50;;;;;24.38;38.62;102185.75;146602;652;46022;-72
2022/10/18 10:04:24;;;;;;;;;10.50;9.75;;;;;22.68;39.13;101918.63;146604;571;46020;-72
2022/10/18 10:07:49;;;;;;;;;11.50;10.25;;;;;22.30;41.95;101904.56;146603;687;46914;-73
2022/10/18 10:10:50;;;;;;;;;13.00;11.25;;;;;23.76;42.26;102182.81;146604;720;46020;-72
2022/10/18 10:13:45;;;;;;;;;8.25;8.00;;;;;23.83;41.88;102180.34;146605;602;46015;-72
2022/10/18 10:16:46;;;;;;;;;10.00;9.00;;;;;23.86;40.85;102183.06;146605;580;46020;-72
2022/10/18 10:20:02;;;;;;;;;10.50;10.00;;;;;23.80;42.32;102177.62;146603;619;46026;-70
2022/10/18 10:23:09;;;;;;;;;9.50;8.75;;;;;23.78;41.82;102168.75;146606;680;46028;-73
2022/10/18 10:26:30;;;;;;;;;8.67;8.67;;;;;22.25;45.00;101900.97;146605;564;46012;-73
2022/10/18 10:29:55;;;;;;;;;11.50;11.50;;;;;23.89;43.41;102167.19;146605;571;46021;-71
2022/10/18 10:33:09;;;;;;;;;10.00;9.00;;;;;22.52;45.28;101882.13;146624;574;45912;-74
2022/10/18 10:36:08;;;;;;;;;11.75;11.75;;;;;24.08;41.79;102147.25;146627;680;46011;-70
2022/10/18 10:39:19;;;;;;;;;12.75;11.50;;;;;23.76;42.83;102146.62;146627;570;45012;-73
2022/10/18 10:42:27;;;;;;;;;12.50;11.00;;;;;23.68;43.10;102143.81;146625;564;45020;-72
2022/10/18 10:45:19;;;;;;;;;15.00;13.25;;;;;23.80;43.79;102137.00;146624;642;45915;-72
2022/10/18 10:48:34;;;;;;;;;13.00;11.75;;;;;22.13;41.89;101831.09;146626;624;45020;-73
2022/10/18 10:51:59;;;;;;;;;12.00;12.00;;;;;22.40;43.17;101858.09;146623;576;45912;-72
2022/10/18 10:54:56;;;;;;;;;15.25;11.50;;;;;24.07;41.41;102126.03;146625;569;45020;-72
2022/10/18 10:57:57;;;;;;;;;12.25;10.00;;;;;24.19;42.37;102127.12;146621;668;47010;-71
2022/10/18 11:00:49;;;;;;;;;10.50;10.50;;;;;24.29;41.04;102120.22;146628;656;45020;-71
2022/10/18 11:04:11;;;;;;;;;12.75;12.00;;;;;24.35;43.33;102122.97;146625;617;45030;-73
2022/10/18 11:07:36;;;;;;;;;11.75;11.75;;;;;24.22;43.19;102114.81;146626;564;45020;-72
2022/10/18 11:10:58;;;;;;;;;11.75;10.75;;;;;22.50;40.84;101818.69;146622;649;45914;-72
2022/10/18 11:14:01;;;;;;;;;14.50;13.75;;;;;24.09;40.80;102096.03;146626;589;45011;-73
2022/10/18 11:17:49;;;;;;;;;12.25;11.25;;;;;22.45;45.00;101820.34;146629;615;45016;-70
2022/10/18 11:21:04;;;;;;;;;;;;;;;;;;;;;
2022/10/18 11:24:02;;;;;;;;;11.25;10.75;;;;;24.08;39.19;102074.78;146628;661;45012;-73
2022/10/18 11:27:10;;;;;;;;;11.75;10.75;;;;;24.06;39.75;102069.50;146627;682;45010;-73
2022/10/18 11:30:50;;;;;;;;;11.00;10.50;;;;;22.35;41.17;101794.59;146624;676;45914;-73
2022/10/18 11:34:08;;;;;;;;;8.00;8.00;;;;;23.83;37.30;102074.41;146607;682;46020;-72
2022/10/18 11:37:56;;;;;;;;;9.00;9.00;;;;;23.87;41.45;102065.62;146606;579;46016;-72
2022/10/18 11:41:37;;;;;;;;;11.75;10.50;;;;;23.05;40.43;101901.75;146602;593;46913;-71
2022/10/18 11:45:11;;;;;;;;;9.50;8.50;;;;;23.98;41.40;102053.44;146604;640;46012;-72
2022/10/18 11:49:05;;;;;;;;;;;;;;;;;;;;;
2022/10/18 11:52:34;;;;;;;;;11.67;9.33;;;;;22.18;40.13;101772.22;146603;653;46034;-71
2022/10/18 11:55:52;;;;;;;;;9.33;9.33;;;;;23.59;41.45;102043.00;146607;593;46020;-73
2022/10/18 11:59:34;;;;;;;;;9.00;9.00;;;;;23.55;38.51;102027.03;146603;646;46914;-72
2022/10/18 12:03:29;;;;;;;;;13.00;11.00;;;;;22.44;37.47;101871.41;146604;684;46010;-75
2022/10/18 12:06:37;;;;;;;;;11.00;9.25;;;;;23.29;38.40;102024.78;146605;570;46914;-74
2022/10/18 12:09:44;;;;;;;;;8.75;8.75;;;;;23.33;38.69;102025.72;146605;582;46020;-72
2022/10/18 12:13:01;;;;;;;;;11.50;11.50;;;;;23.38;37.60;102030.25;146606;584;46012;-73
2022/10/18 12:16:11;;;;;;;;;10.75;10.00;;;;;23.45;41.49;102025.97;146606;662;47012;-74
2022/10/18 12:19:28;;;;;;;;;12.00;12.00;;;;;22.05;42.16;101734.94;146601;596;46016;-71
2022/10/18 12:22:42;;;;;;;;;11.25;10.50;;;;;23.62;43.19;101998.06;146606;681;46020;-74
2022/10/18 12:25:41;;;;;;;;;14.00;12.50;;;;;23.72;41.91;102001.78;146602;583;46016;-71
2022/10/18 12:29:17;;;;;;;;;12.00;12.00;;;;;23.74;43.82;102008.00;146608;635;46011;-73
2022/10/18 12:32:33;;;;;;;;;13.50;12.00;;;;;23.76;43.09;101998.31;146623;606;45012;-74
2022/10/18 12:36:28;;;;;;;;;14.50;13.25;;;;;22.21;43.90;101711.50;146625;570;46011;-71
2022/10/18 12:39:45;;;;;;;;;14.75;14.75;;;;;23.91;43.55;101982.69;146625;591;46012;-71
2022/10/18 12:42:48;;;;;;;;;13.25;12.00;;;;;24.02;41.56;101980.22;146625;619;45021;-71
2022/10/18 12:46:13;;;;;;;;;11.25;11.00;;;;;23.97;43.64;101964.25;146625;631;45016;-70
2022/10/18 12:49:19;;;;;;;;;12.75;12.75;;;;;24.02;42.42;101968.72;146628;685;45010;-72
2022/10/18 12:52:27;;;;;;;;;13.75;12.00;;;;;24.07;43.87;101974.97;146626;684;45012;-71
2022/10/18 12:55:46;;;;;;;;;15.75;12.75;;;;;22.53;43.45;101694.50;146627;687;46010;-72
2022/10/18 12:58:42;;;;;;;;;11.00;11.00;;;;;24.15;40.24;101957.47;146625;629;45016;-71
2022/10/18 13:02:17;;;;;;;;;16.75;13.00;;;;;22.59;43.39;101684.06;146630;688;45010;-71
2022/10/18 13:05:49;;;;;;;;;14.25;12.50;;;;;22.27;42.86;101635.00;146622;627;45917;-74
2022/10/18 13:08:52;;;;;;;;;11.75;10.75;;;;;24.00;41.08;101941.31;146628;635;45020;-72
2022/10/18 13:11:57;;;;;;;;;12.50;11.50;;;;;23.97;40.74;101936.88;146626;592;45017;-71
2022/10/18 13:15:28;;;;;;;;;15.25;12.50;;;;;23.99;41.96;101932.50;146627;673;46010;-70
2022/10/18 13:18:41;;;;;;;;;14.25;11.25;;;;;23.99;41.95;101927.19;146624;640;45016;-73
2022/10/18 13:22:01;;;;;;;;;10.75;10.75;;;;;24.01;41.50;101917.50;146629;689;45010;-73
2022/10/18 13:25:38;;;;;;;;;11.00;11.00;;;;;23.22;42.99;101752.97;146627;647;46015;-73
2022/10/18 13:29:10;;;;;;;;;8.00;8.00;;;;;22.74;42.77;101632.28;146629;733;45010;-75
2022/10/18 13:32:27;;;;;;;;;13.25;11.75;;;;;24.30;41.84;101904.66;146604;569;46018;-71
2022/10/18 13:35:50;;;;;;;;;10.00;10.00;;;;;24.23;41.87;101897.47;146605;564;46021;-72
2022/10/18 13:39:14;;;;;;;;;9.50;8.00;;;;;22.60;43.13;101635.59;146600;680;47016;-72
2022/10/18 13:42:45;;;;;;;;;10.75;10.75;;;;;22.48;43.06;101622.19;146605;662;46020;-72
2022/10/18 13:45:56;;;;;;;;;12.00;12.00;;;;;23.94;42.07;101889.12;146603;567;46012;-72
2022/10/18 13:49:26;;;;;;;;;;;;;;;;;;;;;
2022/10/18 13:53:04;;;;;;;;;10.50;10.50;;;;;23.65;40.13;101883.38;146603;710;46016;-70
2022/10/18 13:57:09;;;;;;;;;;;;;;;;;;;;;
2022/10/18 14:00:31;;;;;;;;;11.00;10.00;;;;;21.38;42.08;101596.31;146604;595;46012;-70
2022/10/18 14:03:59;;;;;;;;;10.25;10.25;;;;;22.83;41.81;101879.25;146604;649;46024;-70
2022/10/18 14:06:59;;;;;;;;;11.00;10.00;;;;;22.68;42.47;101878.03;146601;602;46016;-70
2022/10/18 14:10:03;;;;;;;;;13.50;11.50;;;;;22.60;42.56;101868.22;146608;614;47012;-68
2022/10/18 14:13:08;;;;;;;;;12.00;12.00;;;;;22.57;42.10;101865.50;146604;635;46016;-69
2022/10/18 14:16:24;;;;;;;;;12.75;11.25;;;;;22.40;41.88;101866.94;146604;663;46020;-70
2022/10/18 14:19:32;;;;;;;;;10.00;10.00;;;;;22.11;42.79;101866.25;146607;566;46012;-71
2022/10/18 14:23:01;;;;;;;;;10.75;9.50;;;;;21.92;42.73;101870.25;146608;640;46010;-70
2022/10/18 14:25:54;;;;;;;;;11.25;10.00;;;;;21.78;42.99;101871.69;146604;711;46013;-70
2022/10/18 14:28:47;;;;;;;;;10.75;9.75;;;;;21.73;42.00;101858.38;146607;616;46020;-70